createdAt,value
2023-06-15T00:02:19.399Z,91.40
2023-06-15T00:04:46.948Z,91.40
2023-06-15T00:07:14.417Z,91.60
2023-06-15T00:09:42.002Z,91.60
2023-06-15T00:12:10.633Z,91.60
2023-06-15T00:14:38.306Z,91.60
2023-06-15T00:17:06.145Z,91.60
2023-06-15T00:19:33.703Z,91.70
2023-06-15T00:22:01.901Z,91.60
2023-06-15T00:24:29.457Z,91.60
2023-06-15T00:26:56.966Z,91.70
2023-06-15T00:29:24.588Z,91.70
2023-06-15T00:31:52.389Z,91.80
2023-06-15T00:34:19.754Z,91.80
2023-06-15T00:36:47.283Z,91.90
2023-06-15T00:39:14.745Z,91.90
2023-06-15T00:41:43.449Z,92.00
2023-06-15T00:44:11.721Z,92.20
2023-06-15T00:46:40.432Z,92.30
2023-06-15T00:49:08.786Z,92.40
2023-06-15T00:51:40.136Z,92.50
2023-06-15T00:54:08.382Z,92.60
2023-06-15T00:56:37.116Z,92.60
2023-06-15T00:59:06.075Z,92.60
2023-06-15T01:01:33.608Z,92.60
2023-06-15T01:04:03.019Z,92.60
2023-06-15T01:06:33.092Z,92.60
2023-06-15T01:09:04.130Z,92.60
2023-06-15T01:11:32.664Z,92.80
2023-06-15T01:14:01.569Z,92.90
2023-06-15T01:16:39.933Z,92.90
2023-06-15T01:19:31.061Z,92.90
2023-06-15T01:22:16.409Z,92.80
2023-06-15T01:24:49.588Z,92.90
2023-06-15T01:27:19.938Z,93.10
2023-06-15T01:29:47.582Z,93.20
2023-06-15T01:32:15.112Z,93.20
2023-06-15T01:34:42.610Z,93.20
2023-06-15T01:37:10.731Z,93.30
2023-06-15T01:39:40.278Z,93.40
2023-06-15T01:42:08.582Z,93.50
2023-06-15T01:44:36.739Z,93.50
2023-06-15T01:47:04.486Z,93.50
2023-06-15T01:49:31.907Z,93.50
2023-06-15T01:51:59.362Z,93.50
2023-06-15T01:54:26.943Z,93.40
2023-06-15T01:56:54.455Z,93.40
2023-06-15T01:59:22.287Z,93.40
2023-06-15T02:01:50.069Z,93.50
2023-06-15T02:04:17.573Z,93.50
2023-06-15T02:06:45.153Z,93.60
2023-06-15T02:09:12.807Z,93.70
2023-06-15T02:11:43.105Z,93.70
2023-06-15T02:14:10.758Z,93.80
2023-06-15T02:16:39.625Z,93.90
2023-06-15T02:19:08.001Z,94.10
2023-06-15T02:21:35.464Z,94.20
2023-06-15T02:24:02.913Z,94.20
2023-06-15T02:26:30.403Z,94.30
2023-06-15T02:28:59.839Z,94.30
2023-06-15T02:31:27.328Z,94.40
2023-06-15T02:33:54.726Z,94.30
2023-06-15T02:36:23.927Z,94.30
2023-06-15T02:38:51.527Z,94.30
2023-06-15T02:41:19.692Z,94.40
2023-06-15T02:43:47.140Z,94.40
2023-06-15T02:46:14.811Z,94.50
2023-06-15T02:48:42.436Z,94.60
2023-06-15T02:51:10.009Z,94.60
2023-06-15T02:53:37.637Z,94.60
2023-06-15T02:56:07.915Z,94.70
2023-06-15T02:58:38.446Z,94.70
2023-06-15T03:01:42.161Z,94.80
2023-06-15T03:04:16.123Z,94.80
2023-06-15T03:06:47.607Z,94.90
2023-06-15T03:09:22.011Z,94.70
2023-06-15T03:11:51.975Z,94.60
2023-06-15T03:14:21.816Z,94.50
2023-06-15T03:16:49.627Z,94.40
2023-06-15T03:19:17.215Z,94.40
2023-06-15T03:21:45.387Z,94.40
2023-06-15T03:24:14.958Z,94.40
2023-06-15T03:26:43.286Z,94.40
2023-06-15T03:29:12.393Z,94.30
2023-06-15T03:31:42.267Z,94.30
2023-06-15T03:34:11.022Z,94.30
2023-06-15T03:36:38.495Z,94.20
2023-06-15T03:39:06.507Z,94.30
2023-06-15T03:41:38.397Z,94.20
2023-06-15T03:44:06.704Z,94.10
2023-06-15T03:46:34.274Z,94.10
2023-06-15T03:49:02.755Z,94.00
2023-06-15T03:51:30.778Z,93.90
2023-06-15T03:53:58.380Z,93.70
2023-06-15T03:56:26.411Z,93.20
2023-06-15T03:58:53.965Z,92.70
2023-06-15T04:01:23.675Z,92.60
2023-06-15T04:03:51.902Z,92.80
2023-06-15T04:06:22.813Z,92.90
2023-06-15T04:08:53.098Z,93.00
2023-06-15T04:11:22.102Z,92.30
2023-06-15T04:13:50.937Z,91.60
2023-06-15T04:16:18.330Z,91.20
2023-06-15T04:18:46.797Z,91.10
2023-06-15T04:21:14.242Z,90.70
2023-06-15T04:23:44.611Z,90.00
2023-06-15T04:26:12.608Z,88.70
2023-06-15T04:28:40.504Z,87.10
2023-06-15T04:31:11.141Z,85.50
2023-06-15T04:33:43.949Z,84.00
2023-06-15T04:36:17.764Z,82.50
2023-06-15T04:38:49.752Z,81.20
2023-06-15T04:41:24.208Z,79.70
2023-06-15T04:43:57.461Z,78.60
2023-06-15T04:46:25.974Z,77.60
2023-06-15T04:48:53.759Z,76.70
2023-06-15T04:51:21.468Z,76.20
2023-06-15T04:53:49.573Z,75.60
2023-06-15T04:56:17.803Z,75.30
2023-06-15T04:58:46.330Z,74.50
2023-06-15T05:01:14.043Z,73.70
2023-06-15T05:03:41.650Z,73.20
2023-06-15T05:06:09.259Z,72.50
2023-06-15T05:08:38.376Z,71.70
2023-06-15T05:11:07.776Z,71.40
2023-06-15T05:13:35.539Z,71.30
2023-06-15T05:16:03.746Z,71.30
2023-06-15T05:18:32.522Z,71.20
2023-06-15T05:21:00.437Z,70.40
2023-06-15T05:23:31.752Z,69.90
2023-06-15T05:26:00.799Z,70.00
2023-06-15T05:28:28.545Z,70.30
2023-06-15T05:30:56.002Z,70.20
2023-06-15T05:33:23.373Z,70.20
2023-06-15T05:35:51.159Z,69.70
2023-06-15T05:38:18.617Z,69.30
2023-06-15T05:40:46.231Z,69.40
2023-06-15T05:43:13.680Z,70.30
2023-06-15T05:45:41.448Z,71.00
2023-06-15T05:48:10.575Z,70.60
2023-06-15T05:50:39.271Z,70.30
2023-06-15T05:53:07.760Z,70.20
2023-06-15T05:55:35.441Z,69.60
2023-06-15T05:58:03.450Z,69.70
2023-06-15T06:00:33.073Z,70.40
2023-06-15T06:03:02.580Z,70.80
2023-06-15T06:05:43.929Z,72.10
2023-06-15T06:08:11.337Z,72.80
2023-06-15T06:10:38.886Z,72.90
2023-06-15T06:13:26.483Z,74.00
2023-06-15T06:15:54.175Z,73.90
2023-06-15T06:18:21.694Z,74.10
2023-06-15T06:20:49.111Z,75.10
2023-06-15T06:23:16.905Z,75.10
2023-06-15T06:25:44.264Z,75.00
2023-06-15T06:28:11.664Z,73.80
2023-06-15T06:30:39.358Z,74.30
2023-06-15T06:33:06.857Z,74.90
2023-06-15T06:35:34.437Z,74.90
2023-06-15T06:38:02.066Z,74.00
2023-06-15T06:40:30.530Z,74.10
2023-06-15T06:42:58.070Z,73.30
2023-06-15T06:45:29.185Z,72.80
2023-06-15T06:47:58.020Z,71.40
2023-06-15T06:50:25.702Z,71.90
2023-06-15T06:52:53.112Z,73.10
2023-06-15T06:55:20.871Z,73.20
2023-06-15T06:57:48.560Z,72.90
2023-06-15T07:00:16.950Z,72.50
2023-06-15T07:02:44.382Z,72.40
2023-06-15T07:05:11.785Z,73.10
2023-06-15T07:07:39.463Z,73.20
2023-06-15T07:10:07.890Z,73.90
2023-06-15T07:12:35.619Z,74.30
2023-06-15T07:15:02.988Z,73.20
2023-06-15T07:17:30.346Z,73.30
2023-06-15T07:19:58.448Z,74.10
2023-06-15T07:22:25.869Z,73.40
2023-06-15T07:24:53.511Z,73.10
2023-06-15T07:27:22.090Z,72.80
2023-06-15T07:29:49.740Z,73.70
2023-06-15T07:32:17.201Z,73.90
2023-06-15T07:34:44.604Z,74.10
2023-06-15T07:37:11.980Z,74.40
2023-06-15T07:39:39.292Z,75.40
2023-06-15T07:42:08.058Z,75.80
2023-06-15T07:44:36.411Z,74.90
2023-06-15T07:47:04.512Z,74.40
2023-06-15T07:49:44.886Z,75.20
2023-06-15T07:52:13.407Z,73.10
2023-06-15T07:54:41.563Z,71.30
2023-06-15T07:57:09.001Z,71.00
2023-06-15T07:59:36.394Z,71.50
2023-06-15T08:02:04.157Z,73.10
2023-06-15T08:04:31.534Z,72.20
2023-06-15T08:06:58.887Z,71.30
2023-06-15T08:09:26.332Z,72.40
2023-06-15T08:11:53.696Z,71.90
2023-06-15T08:14:21.874Z,70.90
2023-06-15T08:16:49.599Z,71.20
2023-06-15T08:19:16.985Z,71.20
2023-06-15T08:21:44.485Z,69.70
2023-06-15T08:24:13.470Z,69.40
2023-06-15T08:26:41.747Z,68.50
2023-06-15T08:29:22.692Z,67.00
2023-06-15T08:31:51.717Z,66.90
2023-06-15T08:34:19.739Z,66.10
2023-06-15T08:36:47.523Z,66.00
2023-06-15T08:39:15.013Z,65.80
2023-06-15T08:41:46.443Z,65.60
2023-06-15T08:44:16.469Z,64.10
2023-06-15T08:46:44.363Z,64.80
2023-06-15T08:49:12.170Z,64.80
2023-06-15T08:51:41.821Z,63.30
2023-06-15T08:54:11.331Z,62.00
2023-06-15T08:56:39.851Z,61.20
2023-06-15T08:59:08.512Z,61.10
2023-06-15T09:01:41.566Z,62.00
2023-06-15T09:04:09.665Z,62.40
2023-06-15T09:06:37.278Z,61.80
2023-06-15T09:09:05.375Z,62.00
2023-06-15T09:11:41.062Z,61.10
2023-06-15T09:14:10.570Z,60.70
2023-06-15T09:16:39.376Z,59.80
2023-06-15T09:19:17.435Z,58.50
2023-06-15T09:21:55.530Z,58.20
2023-06-15T09:24:24.715Z,57.70
2023-06-15T09:26:52.227Z,59.20
2023-06-15T09:29:19.585Z,57.40
2023-06-15T09:31:46.954Z,56.60
2023-06-15T09:34:15.204Z,57.30
2023-06-15T09:36:50.704Z,57.60
2023-06-15T09:39:26.020Z,57.30
2023-06-15T09:41:57.553Z,54.80
2023-06-15T09:44:26.451Z,55.20
2023-06-15T09:46:57.725Z,55.80
2023-06-15T09:49:27.472Z,56.30
2023-06-15T09:51:56.117Z,57.90
2023-06-15T09:54:29.967Z,57.70
2023-06-15T09:56:58.493Z,57.60
2023-06-15T09:59:26.256Z,57.40
2023-06-15T10:01:57.061Z,57.70
2023-06-15T10:04:29.531Z,56.00
2023-06-15T10:07:02.324Z,55.10
2023-06-15T10:09:36.938Z,54.50
2023-06-15T10:12:13.765Z,54.10
2023-06-15T10:14:53.888Z,54.20
2023-06-15T10:17:25.448Z,53.70
2023-06-15T10:19:55.068Z,51.90
2023-06-15T10:22:25.467Z,52.40
2023-06-15T10:24:53.804Z,53.20
2023-06-15T10:27:21.952Z,54.40
2023-06-15T10:29:55.734Z,52.90
2023-06-15T10:32:38.036Z,50.60
2023-06-15T10:35:21.308Z,48.90
2023-06-15T10:38:16.513Z,51.00
2023-06-15T10:40:49.031Z,49.40
2023-06-15T10:43:25.971Z,49.00
2023-06-15T10:45:53.906Z,47.50
2023-06-15T10:48:29.197Z,50.00
2023-06-15T10:51:07.758Z,48.90
2023-06-15T10:53:43.070Z,49.40
2023-06-15T10:56:17.926Z,50.10
2023-06-15T10:59:05.328Z,49.90
2023-06-15T11:01:33.657Z,49.50
2023-06-15T11:04:22.308Z,49.30
2023-06-15T11:06:58.652Z,49.90
2023-06-15T11:09:35.634Z,49.90
2023-06-15T11:12:04.539Z,51.00
2023-06-15T11:14:33.292Z,49.80
2023-06-15T11:17:05.763Z,50.30
2023-06-15T11:19:42.128Z,50.10
2023-06-15T11:22:10.195Z,50.00
2023-06-15T11:24:39.494Z,50.60
2023-06-15T11:27:11.183Z,50.60
2023-06-15T11:29:43.403Z,49.60
2023-06-15T11:32:11.615Z,49.30
2023-06-15T11:34:40.096Z,49.80
2023-06-15T11:37:14.905Z,49.30
2023-06-15T11:39:45.508Z,48.70
2023-06-15T11:42:13.101Z,50.00
2023-06-15T11:44:42.586Z,49.40
2023-06-15T11:47:14.172Z,48.50
2023-06-15T11:49:42.140Z,49.50
2023-06-15T11:52:09.535Z,48.90
2023-06-15T11:54:51.717Z,47.90
2023-06-15T11:57:22.156Z,49.30
2023-06-15T11:59:49.748Z,48.50
2023-06-15T12:02:17.927Z,48.30
2023-06-15T12:04:48.728Z,49.10
2023-06-15T12:09:53.512Z,48.00
2023-06-15T12:12:36.936Z,49.10
2023-06-15T12:15:06.694Z,49.90
2023-06-15T12:17:36.008Z,48.20
2023-06-15T12:20:11.586Z,47.70
2023-06-15T12:22:44.804Z,48.40
2023-06-15T12:25:13.061Z,47.10
2023-06-15T12:27:45.821Z,46.70
2023-06-15T12:30:19.403Z,46.80
2023-06-15T12:32:49.414Z,47.50
2023-06-15T12:35:39.424Z,47.60
2023-06-15T12:38:11.608Z,47.60
2023-06-15T12:40:43.106Z,47.50
2023-06-15T12:43:10.822Z,48.10
2023-06-15T12:45:38.516Z,47.70
2023-06-15T12:48:07.052Z,48.20
2023-06-15T12:50:35.124Z,48.20
2023-06-15T12:53:03.527Z,48.80
2023-06-15T12:55:30.987Z,47.80
2023-06-15T12:57:59.029Z,47.60
2023-06-15T13:00:30.999Z,47.90
2023-06-15T13:03:02.537Z,47.40
2023-06-15T13:05:30.206Z,47.60
2023-06-15T13:07:58.301Z,47.20
2023-06-15T13:10:26.196Z,47.80
2023-06-15T13:12:54.508Z,47.50
2023-06-15T13:15:22.572Z,46.80
2023-06-15T13:17:51.164Z,46.60
2023-06-15T13:20:19.675Z,47.10
2023-06-15T13:22:49.623Z,46.10
2023-06-15T13:25:17.287Z,45.50
2023-06-15T13:27:44.832Z,45.60
2023-06-15T13:30:14.628Z,46.30
2023-06-15T13:32:44.552Z,46.60
2023-06-15T13:35:12.172Z,45.70
2023-06-15T13:37:40.944Z,45.90
2023-06-15T13:40:09.766Z,46.30
2023-06-15T13:42:39.594Z,45.00
2023-06-15T13:45:09.944Z,45.70
2023-06-15T13:47:39.435Z,45.40
2023-06-15T13:50:07.533Z,44.80
2023-06-15T13:52:36.135Z,45.00
2023-06-15T13:55:07.036Z,46.50
2023-06-15T13:57:36.157Z,45.00
2023-06-15T14:00:09.392Z,45.30
2023-06-15T14:02:42.232Z,45.00
2023-06-15T14:05:10.876Z,44.80
2023-06-15T14:07:39.892Z,44.60
2023-06-15T14:10:08.495Z,44.10
2023-06-15T14:12:36.558Z,44.10
2023-06-15T14:15:07.702Z,44.60
2023-06-15T14:17:35.501Z,44.40
2023-06-15T14:20:03.975Z,46.00
2023-06-15T14:22:32.295Z,44.90
2023-06-15T14:24:59.818Z,45.20
2023-06-15T14:27:27.545Z,46.70
2023-06-15T14:29:55.004Z,47.00
2023-06-15T14:32:22.422Z,47.00
2023-06-15T14:34:50.596Z,44.90
2023-06-15T14:37:20.219Z,44.90
2023-06-15T14:39:49.047Z,45.00
2023-06-15T14:42:20.199Z,44.40
2023-06-15T14:44:47.934Z,45.00
2023-06-15T14:47:16.079Z,45.20
2023-06-15T14:49:43.713Z,45.00
2023-06-15T14:52:12.167Z,45.50
2023-06-15T14:54:42.877Z,44.80
2023-06-15T14:57:12.697Z,44.80
2023-06-15T14:59:40.907Z,47.00
2023-06-15T15:02:08.632Z,47.80
2023-06-15T15:04:36.051Z,46.50
2023-06-15T15:07:04.009Z,47.10
2023-06-15T15:09:31.385Z,47.40
2023-06-15T15:11:58.953Z,46.20
2023-06-15T15:14:27.014Z,46.30
2023-06-15T15:16:54.534Z,46.50
2023-06-15T15:19:22.943Z,46.00
2023-06-15T15:21:51.151Z,46.30
2023-06-15T15:24:18.741Z,47.20
2023-06-15T15:26:46.420Z,47.50
2023-06-15T15:29:13.967Z,46.10
2023-06-15T15:31:41.935Z,47.10
2023-06-15T15:34:09.605Z,48.20
2023-06-15T15:36:37.330Z,47.20
2023-06-15T15:39:05.314Z,46.50
2023-06-15T15:41:32.900Z,46.10
2023-06-15T15:44:01.490Z,46.40
2023-06-15T15:46:29.030Z,46.00
2023-06-15T15:48:56.417Z,47.10
2023-06-15T15:51:23.814Z,46.70
2023-06-15T15:53:52.313Z,46.80
2023-06-15T15:56:19.665Z,47.70
2023-06-15T15:58:47.036Z,46.80
2023-06-15T16:01:17.547Z,47.70
2023-06-15T16:03:45.346Z,48.10
2023-06-15T16:06:12.946Z,48.20
2023-06-15T16:08:40.635Z,47.60
2023-06-15T16:11:08.120Z,47.20
2023-06-15T16:13:35.670Z,48.30
2023-06-15T16:18:34.151Z,48.70
2023-06-15T16:21:01.660Z,49.70
2023-06-15T16:23:29.280Z,50.50
2023-06-15T16:25:56.811Z,50.60
2023-06-15T16:28:24.230Z,51.10
2023-06-15T16:30:53.903Z,50.40
2023-06-15T16:33:21.353Z,50.80
2023-06-15T16:35:48.877Z,51.40
2023-06-15T16:38:16.422Z,51.30
2023-06-15T16:40:48.280Z,52.00
2023-06-15T16:43:16.274Z,52.30
2023-06-15T16:45:44.195Z,52.80
2023-06-15T16:48:12.233Z,52.50
2023-06-15T16:50:39.831Z,52.60
2023-06-15T16:53:07.827Z,52.70
2023-06-15T16:55:35.363Z,52.20
2023-06-15T16:58:04.366Z,52.70
2023-06-15T17:00:32.164Z,52.80
2023-06-15T17:03:00.635Z,52.30
2023-06-15T17:05:28.145Z,51.70
2023-06-15T17:07:56.755Z,52.30
2023-06-15T17:10:31.358Z,53.40
2023-06-15T17:13:00.832Z,53.00
2023-06-15T17:15:29.710Z,53.90
2023-06-15T17:17:57.680Z,54.30
2023-06-15T17:20:26.838Z,54.50
2023-06-15T17:22:55.860Z,54.70
2023-06-15T17:25:23.203Z,55.00
2023-06-15T17:27:50.860Z,55.20
2023-06-15T17:30:20.204Z,55.30
2023-06-15T17:32:48.215Z,55.30
2023-06-15T17:35:15.812Z,55.30
2023-06-15T17:37:43.384Z,55.70
2023-06-15T17:40:11.636Z,56.10
2023-06-15T17:42:39.044Z,56.30
2023-06-15T17:45:08.447Z,56.50
2023-06-15T17:47:36.795Z,56.70
2023-06-15T17:50:04.530Z,57.10
2023-06-15T17:52:31.940Z,57.10
2023-06-15T17:54:59.708Z,57.20
2023-06-15T17:57:27.453Z,57.20
2023-06-15T17:59:55.339Z,57.30
2023-06-15T18:02:23.579Z,57.00
2023-06-15T18:04:51.775Z,55.80
2023-06-15T18:07:19.403Z,55.00
2023-06-15T18:09:47.898Z,54.50
2023-06-15T18:12:15.435Z,53.90
2023-06-15T18:14:42.892Z,53.40
2023-06-15T18:17:10.540Z,53.00
2023-06-15T18:19:38.273Z,53.00
2023-06-15T18:22:05.647Z,53.00
2023-06-15T18:24:33.239Z,53.60
2023-06-15T18:27:00.755Z,52.90
2023-06-15T18:29:28.172Z,53.10
2023-06-15T18:31:55.541Z,53.20
2023-06-15T18:34:23.050Z,53.80
2023-06-15T18:36:50.392Z,54.50
2023-06-15T18:39:18.880Z,54.70
2023-06-15T18:41:46.418Z,54.90
2023-06-15T18:44:14.207Z,56.10
2023-06-15T18:46:42.680Z,56.40
2023-06-15T18:49:11.874Z,57.60
2023-06-15T18:51:39.391Z,58.30
2023-06-15T18:54:07.540Z,59.20
2023-06-15T18:56:35.361Z,59.70
2023-06-15T18:59:03.322Z,60.00
2023-06-15T19:01:30.987Z,60.60
2023-06-15T19:04:01.530Z,61.30
2023-06-15T19:06:29.207Z,61.80
2023-06-15T19:08:56.579Z,62.30
2023-06-15T19:11:23.936Z,62.70
2023-06-15T19:13:51.635Z,63.40
2023-06-15T19:16:19.013Z,63.60
2023-06-15T19:18:46.790Z,64.00
2023-06-15T19:21:14.175Z,64.50
2023-06-15T19:23:42.115Z,65.10
2023-06-15T19:26:16.817Z,65.60
2023-06-15T19:28:44.399Z,66.20
2023-06-15T19:31:13.249Z,66.60
2023-06-15T19:33:40.843Z,67.10
2023-06-15T19:36:08.200Z,67.40
2023-06-15T19:38:40.175Z,68.40
2023-06-15T19:41:13.573Z,68.00
2023-06-15T19:43:41.343Z,68.40
2023-06-15T19:46:09.105Z,68.80
2023-06-15T19:48:37.282Z,70.00
2023-06-15T19:51:04.662Z,69.80
2023-06-15T19:53:35.050Z,70.10
2023-06-15T19:56:04.767Z,70.60
2023-06-15T19:58:33.716Z,71.00
2023-06-15T20:01:04.288Z,71.10
2023-06-15T20:03:34.031Z,71.20
2023-06-15T20:06:09.126Z,71.00
2023-06-15T20:08:38.634Z,71.00
2023-06-15T20:11:08.530Z,71.00
2023-06-15T20:13:37.127Z,71.20
2023-06-15T20:16:15.217Z,71.40
2023-06-15T20:18:43.794Z,72.10
2023-06-15T20:21:11.330Z,72.10
2023-06-15T20:23:39.148Z,73.20
2023-06-15T20:26:06.505Z,72.70
2023-06-15T20:28:34.117Z,73.00
2023-06-15T20:31:08.809Z,72.90
2023-06-15T20:33:37.756Z,73.10
2023-06-15T20:36:06.747Z,73.40
2023-06-15T20:38:36.789Z,73.60
2023-06-15T20:41:05.490Z,73.70
2023-06-15T20:43:33.611Z,73.90
2023-06-15T20:46:02.886Z,74.10
2023-06-15T20:48:34.208Z,74.30
2023-06-15T20:51:08.808Z,74.60
2023-06-15T20:53:37.078Z,74.80
2023-06-15T20:56:06.996Z,75.30
2023-06-15T20:58:36.859Z,75.90
2023-06-15T21:01:06.276Z,76.20
2023-06-15T21:03:34.164Z,76.30
2023-06-15T21:06:02.633Z,76.40
2023-06-15T21:08:33.619Z,76.60
2023-06-15T21:11:04.751Z,77.00
2023-06-15T21:13:34.671Z,76.90
2023-06-15T21:16:03.446Z,76.80
2023-06-15T21:18:33.371Z,77.20
2023-06-15T21:21:01.617Z,77.40
2023-06-15T21:23:29.053Z,78.00
2023-06-15T21:25:56.641Z,78.60
2023-06-15T21:28:24.442Z,78.80
2023-06-15T21:30:51.789Z,78.90
2023-06-15T21:33:19.313Z,79.00
2023-06-15T21:35:46.690Z,79.10
2023-06-15T21:38:14.964Z,79.00
2023-06-15T21:40:42.313Z,78.90
2023-06-15T21:43:09.772Z,78.80
2023-06-15T21:45:37.114Z,78.90
2023-06-15T21:48:05.234Z,79.00
2023-06-15T21:50:32.608Z,79.00
2023-06-15T21:53:00.031Z,79.20
2023-06-15T21:55:31.724Z,79.40
2023-06-15T21:57:59.424Z,80.00
2023-06-15T22:00:28.118Z,80.20
2023-06-15T22:02:55.644Z,80.40
2023-06-15T22:05:23.317Z,80.80
2023-06-15T22:07:52.220Z,81.10
2023-06-15T22:10:19.774Z,81.20
2023-06-15T22:12:48.499Z,81.20
2023-06-15T22:15:16.080Z,81.20
2023-06-15T22:17:44.482Z,81.30
2023-06-15T22:20:15.565Z,81.50
2023-06-15T22:22:43.368Z,81.60
2023-06-15T22:25:11.305Z,81.70
2023-06-15T22:27:38.665Z,82.00
2023-06-15T22:30:06.783Z,82.10
2023-06-15T22:32:34.451Z,82.40
2023-06-15T22:35:02.087Z,82.50
2023-06-15T22:37:29.674Z,82.90
2023-06-15T22:39:57.060Z,83.10
2023-06-15T22:42:24.391Z,83.20
2023-06-15T22:44:52.034Z,84.20
2023-06-15T22:47:19.694Z,83.70
2023-06-15T22:49:47.079Z,83.90
2023-06-15T22:52:15.522Z,84.10
2023-06-15T22:54:50.751Z,84.30
2023-06-15T22:57:19.211Z,84.50
2023-06-15T22:59:47.155Z,84.70
2023-06-15T23:02:15.044Z,85.60
2023-06-15T23:04:42.421Z,84.90
2023-06-15T23:07:10.899Z,85.00
2023-06-15T23:09:38.529Z,85.20
2023-06-15T23:12:10.573Z,85.30
2023-06-15T23:14:40.017Z,85.30
2023-06-15T23:17:10.392Z,85.50
2023-06-15T23:19:37.810Z,85.80
2023-06-15T23:22:06.554Z,85.80
2023-06-15T23:24:34.354Z,86.20
2023-06-15T23:27:02.437Z,86.40
2023-06-15T23:29:30.024Z,86.70
2023-06-15T23:31:57.353Z,86.80
2023-06-15T23:34:24.797Z,86.90
2023-06-15T23:36:52.312Z,87.00
2023-06-15T23:39:19.769Z,87.00
2023-06-15T23:41:47.141Z,87.30
2023-06-15T23:44:14.667Z,87.40
2023-06-15T23:46:42.137Z,87.50
2023-06-15T23:49:09.762Z,87.60
2023-06-15T23:51:37.097Z,87.80
2023-06-15T23:54:04.441Z,88.00
2023-06-15T23:56:31.796Z,88.20
2023-06-15T23:58:59.166Z,88.30
